Time;durP1;ratioP1;P1;durP2;ratioP2;P2;SDS_P1;SDS_P2;PMS_P1;PMS_P2;Temp;Humidity;BMP_temperature;BMP_pressure;BME280_temperature;BME280_humidity;BME280_pressure;Samples;Min_cycle;Max_cycle;Signal;HPM_P1;HPM_P2
2023/12/11 00:03:31;;;;;;;8.35;2.30;;;;;;;8.24;98.02;98660.84;10473255;28;20137;-79
2023/12/11 00:08:34;;;;;;;14.35;2.80;;;;;;;8.24;97.21;98683.06;10429960;28;20076;-80
2023/12/11 00:13:37;;;;;;;15.27;4.78;;;;;;;8.38;96.29;98673.69;10429667;28;20489;-80
2023/12/11 00:18:52;;;;;;;;;;;;;;;;;;;;;
2023/12/11 00:23:46;;;;;;;13.75;2.95;;;;;;;8.20;95.86;98656.75;10453703;28;20040;-80
2023/12/11 00:28:49;;;;;;;16.60;2.90;;;;;;;8.32;95.67;98652.88;10454094;28;20057;-80
2023/12/11 00:33:53;;;;;;;16.25;2.85;;;;;;;8.33;94.94;98673.28;10446437;28;20071;-79
2023/12/11 00:38:56;;;;;;;12.70;2.78;;;;;;;8.24;95.88;98683.06;10451312;28;20045;-80
2023/12/11 00:44:00;;;;;;;6.90;2.15;;;;;;;8.52;92.88;98673.19;10440073;28;20084;-80
2023/12/11 00:49:04;;;;;;;19.35;3.50;;;;;;;8.48;93.30;98681.69;10451659;28;20525;-80
2023/12/11 00:54:07;;;;;;;27.00;4.20;;;;;;;8.05;94.29;98675.16;10427869;28;20037;-80
2023/12/11 00:59:10;;;;;;;16.70;3.60;;;;;;;8.58;92.58;98680.63;10444611;28;20052;-82
2023/12/11 01:04:15;;;;;;;13.85;2.90;;;;;;;8.74;91.48;98687.09;10452397;28;20045;-80
2023/12/11 01:09:18;;;;;;;18.48;3.60;;;;;;;8.57;91.51;98681.59;10452256;28;20040;-80
2023/12/11 01:14:21;;;;;;;18.38;4.18;;;;;;;8.36;93.61;98697.06;10448112;28;20524;-81
2023/12/11 01:19:26;;;;;;;14.93;4.15;;;;;;;8.18;94.21;98692.53;10448406;28;20041;-80
2023/12/11 01:24:29;;;;;;;19.77;3.72;;;;;;;8.48;92.99;98695.91;10451095;28;20040;-80
2023/12/11 01:29:32;;;;;;;11.00;3.05;;;;;;;8.52;91.86;98709.81;10452721;28;20053;-79
2023/12/11 01:34:36;;;;;;;17.92;3.33;;;;;;;8.45;92.45;98725.59;10461573;28;20037;-80
2023/12/11 01:39:40;;;;;;;17.08;3.42;;;;;;;8.39;93.17;98718.16;10469160;28;20515;-80
2023/12/11 01:44:43;;;;;;;15.27;3.08;;;;;;;8.40;92.22;98719.84;10447917;28;20041;-80
2023/12/11 01:49:48;;;;;;;13.82;2.55;;;;;;;8.23;92.25;98718.84;10457979;28;20103;-80
2023/12/11 01:54:52;;;;;;;23.15;5.47;;;;;;;8.55;91.17;98725.56;10460416;28;20424;-80
2023/12/11 01:59:56;;;;;;;12.90;3.08;;;;;;;8.24;92.74;98727.69;10463778;28;20049;-80
2023/12/11 02:05:00;;;;;;;18.00;3.55;;;;;;;8.47;91.13;98720.94;10458148;28;20440;-80
2023/12/11 02:10:04;;;;;;;17.17;3.78;;;;;;;8.19;92.79;98722.78;10436177;28;20072;-80
2023/12/11 02:15:08;;;;;;;15.43;3.55;;;;;;;8.29;90.84;98718.22;10450979;28;20682;-80
2023/12/11 02:20:13;;;;;;;25.52;4.63;;;;;;;8.18;92.18;98711.25;10441779;28;20041;-80
2023/12/11 02:25:16;;;;;;;24.77;5.10;;;;;;;8.29;90.38;98709.38;10471493;28;20117;-81
2023/12/11 02:30:20;;;;;;;24.05;4.93;;;;;;;8.20;90.67;98707.56;10459259;28;20057;-80
2023/12/11 02:35:23;;;;;;;23.55;3.85;;;;;;;8.00;91.28;98712.19;10461703;28;20181;-80
2023/12/11 02:40:26;;;;;;;20.90;4.38;;;;;;;7.93;92.21;98712.81;10486529;28;20036;-80
2023/12/11 02:45:31;;;;;;;27.73;6.25;;;;;;;8.05;91.51;98718.78;10497149;28;20044;-80
2023/12/11 02:50:34;;;;;;;19.17;3.88;;;;;;;8.29;89.91;98706.69;10488790;28;20057;-80
2023/12/11 02:55:37;;;;;;;24.98;4.38;;;;;;;8.33;89.94;98695.53;10482487;28;20029;-80
2023/12/11 03:00:42;;;;;;;32.58;5.70;;;;;;;8.25;90.45;98692.75;10477363;28;20049;-81
2023/12/11 03:05:45;;;;;;;25.33;4.03;;;;;;;8.35;89.55;98696.22;10496509;28;20136;-80
2023/12/11 03:10:48;;;;;;;18.63;3.90;;;;;;;8.50;89.32;98664.47;10483544;28;20048;-80
2023/12/11 03:15:54;;;;;;;28.73;5.68;;;;;;;8.76;89.04;98661.84;10465940;28;20060;-79
2023/12/11 03:20:57;;;;;;;28.02;4.13;;;;;;;8.15;92.67;98658.06;10459486;28;20044;-79
2023/12/11 03:26:00;;;;;;;29.98;5.10;;;;;;;8.07;92.14;98666.00;10462156;28;20049;-80
2023/12/11 03:31:05;;;;;;;29.05;4.65;;;;;;;8.26;90.47;98651.66;10473127;28;20049;-79
2023/12/11 03:36:09;;;;;;;33.97;2.97;;;;;;;7.98;96.56;98661.56;10462369;28;20102;-80
2023/12/11 03:41:11;;;;;;;26.63;4.70;;;;;;;8.01;100.00;98637.19;10459470;28;20105;-80
2023/12/11 03:46:16;;;;;;;31.10;5.95;;;;;;;7.78;100.00;98633.25;10450881;28;20045;-80
2023/12/11 03:51:19;;;;;;;30.85;5.07;;;;;;;7.71;100.00;98639.19;10432228;28;20103;-80
2023/12/11 03:56:22;;;;;;;30.30;5.40;;;;;;;7.65;100.00;98631.78;10429572;28;20049;-79
2023/12/11 04:01:27;;;;;;;28.27;5.57;;;;;;;7.62;100.00;98632.03;10480941;28;20024;-80
2023/12/11 04:06:30;;;;;;;36.65;4.72;;;;;;;7.52;100.00;98625.94;10486859;28;20045;-80
2023/12/11 04:11:34;;;;;;;19.58;3.63;;;;;;;8.03;97.29;98629.84;10441643;28;20064;-80
2023/12/11 04:16:41;;;;;;;16.30;2.67;;;;;;;7.83;97.85;98639.00;10452251;28;20065;-80
2023/12/11 04:21:44;;;;;;;35.38;5.18;;;;;;;7.91;99.49;98615.84;10452757;28;20068;-80
2023/12/11 04:26:47;;;;;;;22.83;3.90;;;;;;;7.80;100.00;98620.56;10428292;28;20053;-80
2023/12/11 04:31:52;;;;;;;20.63;3.50;;;;;;;7.72;100.00;98598.09;10421291;28;20072;-81
2023/12/11 04:36:55;;;;;;;15.85;2.40;;;;;;;7.77;98.57;98599.50;10426018;28;20132;-79
2023/12/11 04:41:58;;;;;;;19.10;2.85;;;;;;;7.87;96.14;98600.25;10450491;28;20132;-81
2023/12/11 04:47:02;;;;;;;26.48;4.53;;;;;;;7.85;96.08;98595.06;10443117;28;20128;-80
2023/12/11 04:52:05;;;;;;;26.35;4.43;;;;;;;7.99;93.57;98585.69;10449533;28;20548;-81
2023/12/11 04:57:08;;;;;;;15.95;1.95;;;;;;;8.01;91.37;98581.06;10444911;28;20099;-80
2023/12/11 05:02:13;;;;;;;22.20;3.60;;;;;;;8.11;94.59;98581.78;10436040;28;20048;-79
2023/12/11 05:07:16;;;;;;;28.92;3.78;;;;;;;8.02;95.13;98560.50;10448962;28;20454;-80
2023/12/11 05:12:19;;;;;;;25.98;3.50;;;;;;;8.12;93.53;98567.44;10452920;28;20059;-79
2023/12/11 05:17:23;;;;;;;28.98;4.63;;;;;;;8.42;92.03;98548.47;10452724;28;20052;-80
2023/12/11 05:22:26;;;;;;;21.40;4.20;;;;;;;8.46;90.69;98541.84;10457740;28;20041;-78
2023/12/11 05:27:29;;;;;;;39.63;4.93;;;;;;;8.45;88.95;98540.13;10467004;28;20057;-79
2023/12/11 05:32:34;;;;;;;23.92;4.15;;;;;;;8.18;89.15;98558.81;10436017;28;20058;-80
2023/12/11 05:37:37;;;;;;;18.35;3.83;;;;;;;7.85;95.87;98543.47;10444046;28;20079;-81
2023/12/11 05:42:40;;;;;;;35.72;4.82;;;;;;;7.27;100.00;98550.81;10454610;28;21498;-82
2023/12/11 05:47:46;;;;;;;37.63;6.35;;;;;;;7.13;100.00;98542.44;10456391;28;20505;-80
2023/12/11 05:52:49;;;;;;;19.80;3.72;;;;;;;7.18;100.00;98538.34;10448722;28;20059;-82
2023/12/11 05:57:52;;;;;;;20.73;3.58;;;;;;;7.16;100.00;98548.34;10455919;28;20060;-81
2023/12/11 06:02:57;;;;;;;36.78;4.45;;;;;;;6.91;100.00;98559.66;10439541;28;20056;-82
2023/12/11 06:08:00;;;;;;;24.50;3.83;;;;;;;6.73;100.00;98564.91;10450134;28;20045;-81
2023/12/11 06:13:03;;;;;;;23.42;3.00;;;;;;;6.73;100.00;98556.88;10434269;28;20054;-82
2023/12/11 06:18:08;;;;;;;20.88;3.75;;;;;;;6.82;100.00;98556.84;10432986;28;20095;-81
2023/12/11 06:23:11;;;;;;;26.20;3.75;;;;;;;6.83;100.00;98566.56;10431627;28;20474;-82
2023/12/11 06:28:14;;;;;;;32.75;4.78;;;;;;;6.64;100.00;98566.59;10439806;28;20049;-82
2023/12/11 06:33:18;;;;;;;27.48;4.22;;;;;;;6.94;100.00;98551.38;10427976;28;20474;-81
2023/12/11 06:38:21;;;;;;;31.35;4.13;;;;;;;6.78;100.00;98555.47;10437341;28;20119;-80
2023/12/11 06:43:24;;;;;;;17.77;3.70;;;;;;;7.06;100.00;98551.03;10456238;28;20123;-80
2023/12/11 06:48:29;;;;;;;29.08;4.45;;;;;;;7.17;100.00;98549.19;10436725;28;20137;-80
2023/12/11 06:53:32;;;;;;;27.52;4.00;;;;;;;6.94;100.00;98546.88;10443396;28;20055;-81
2023/12/11 06:58:35;;;;;;;22.88;2.92;;;;;;;6.69;100.00;98560.81;10423298;28;20496;-80
2023/12/11 07:03:41;;;;;;;28.85;5.32;;;;;;;6.92;100.00;98543.50;10430226;28;20045;-80
2023/12/11 07:08:44;;;;;;;23.80;5.03;;;;;;;7.12;100.00;98530.94;10441206;28;20076;-80
2023/12/11 07:13:47;;;;;;;27.15;5.20;;;;;;;6.74;100.00;98543.38;10444867;28;20427;-81
2023/12/11 07:18:52;;;;;;;40.95;5.47;;;;;;;7.28;100.00;98552.50;10442305;28;20042;-80
2023/12/11 07:23:56;;;;;;;22.55;4.38;;;;;;;6.69;100.00;98543.00;10434833;28;20148;-81
2023/12/11 07:29:00;;;;;;;26.25;5.85;;;;;;;6.55;100.00;98543.44;10439708;28;20196;-80
2023/12/11 07:34:04;;;;;;;17.80;5.45;;;;;;;6.67;100.00;98539.63;10435692;28;20047;-79
2023/12/11 07:39:07;;;;;;;20.33;5.00;;;;;;;6.80;100.00;98541.97;10471759;28;20045;-79
2023/12/11 07:44:10;;;;;;;10.77;4.38;;;;;;;6.62;100.00;98548.06;10426760;28;20045;-79
2023/12/11 07:49:14;;;;;;;22.52;4.57;;;;;;;6.38;100.00;98564.50;10439061;28;20397;-79
2023/12/11 07:54:18;;;;;;;20.33;8.05;;;;;;;6.83;100.00;98537.19;10437562;28;20073;-79
2023/12/11 07:59:21;;;;;;;26.10;9.02;;;;;;;6.74;100.00;98537.22;10428093;28;20515;-80
2023/12/11 08:04:25;;;;;;;24.00;6.32;;;;;;;6.90;100.00;98523.28;10453972;28;20135;-78
2023/12/11 08:09:28;;;;;;;24.85;4.97;;;;;;;7.13;100.00;98532.63;10433263;28;20095;-79
2023/12/11 08:14:31;;;;;;;22.55;4.10;;;;;;;7.18;100.00;98533.00;10430722;28;20408;-79
2023/12/11 08:19:39;;;;;;;13.57;3.72;;;;;;;7.54;100.00;98527.75;10425722;28;20072;-79
2023/12/11 08:24:43;;;;;;;23.52;4.93;;;;;;;7.58;100.00;98521.13;10434590;28;20053;-79
2023/12/11 08:29:46;;;;;;;15.73;3.60;;;;;;;7.46;100.00;98522.31;10452911;28;20053;-79
2023/12/11 08:34:50;;;;;;;20.85;3.88;;;;;;;7.41;100.00;98517.44;10429644;28;20515;-79
2023/12/11 08:39:56;;;;;;;21.52;5.55;;;;;;;7.46;100.00;98522.31;10440381;28;20048;-79
2023/12/11 08:44:59;;;;;;;10.23;2.90;;;;;;;7.47;100.00;98522.19;10441416;28;20233;-79
2023/12/11 08:50:07;;;;;;;15.32;3.70;;;;;;;7.51;100.00;98525.38;10447001;28;20048;-79
2023/12/11 08:55:11;;;;;;;21.60;4.45;;;;;;;7.34;100.00;98520.84;10432788;28;20143;-79
2023/12/11 09:00:15;;;;;;;26.00;5.95;;;;;;;7.37;100.00;98517.88;10436454;28;20050;-78
2023/12/11 09:05:20;;;;;;;16.92;4.80;;;;;;;7.34;100.00;98515.50;10436631;28;20053;-79
2023/12/11 09:10:23;;;;;;;12.77;3.85;;;;;;;7.43;100.00;98518.13;10447428;28;20115;-79
2023/12/11 09:15:26;;;;;;;26.10;5.47;;;;;;;7.28;100.00;98508.94;10441344;28;20045;-78
2023/12/11 09:20:31;;;;;;;19.75;5.25;;;;;;;7.22;100.00;98515.72;10452019;28;20037;-78
2023/12/11 09:25:34;;;;;;;11.57;3.30;;;;;;;6.91;100.00;98504.47;10462843;28;20079;-79
2023/12/11 09:30:43;;;;;;;11.95;3.67;;;;;;;6.76;100.00;98519.25;10460893;28;20043;-78
2023/12/11 09:35:47;;;;;;;19.23;4.72;;;;;;;6.84;100.00;98525.53;10446301;28;20092;-79
2023/12/11 09:40:50;;;;;;;15.27;4.15;;;;;;;6.96;100.00;98496.84;10449392;28;20076;-79
2023/12/11 09:45:55;;;;;;;19.75;5.60;;;;;;;6.72;100.00;98509.81;10448998;28;20049;-79
2023/12/11 09:51:01;;;;;;;17.35;4.80;;;;;;;6.92;100.00;98516.81;10469790;28;20039;-79
2023/12/11 09:56:05;;;;;;;14.43;5.43;;;;;;;6.66;100.00;98521.91;10462606;28;20055;-79
2023/12/11 10:01:10;;;;;;;13.50;4.75;;;;;;;6.59;100.00;98545.69;10473871;28;20049;-80
2023/12/11 10:06:14;;;;;;;11.18;3.88;;;;;;;6.52;100.00;98523.22;10470794;28;20041;-82
2023/12/11 10:11:22;;;;;;;18.92;5.63;;;;;;;6.79;100.00;98534.97;10459964;28;20071;-80
2023/12/11 10:16:29;;;;;;;17.52;5.95;;;;;;;6.68;100.00;98527.97;10439086;28;20044;-80
2023/12/11 10:21:40;;;;;;;14.25;4.85;;;;;;;6.74;100.00;98523.88;10430265;28;20057;-79
2023/12/11 10:26:46;;;;;;;10.82;3.55;;;;;;;6.52;100.00;98533.06;10428326;28;20108;-80
2023/12/11 10:31:50;;;;;;;12.10;3.08;;;;;;;6.36;100.00;98518.50;10444705;28;20080;-79
2023/12/11 10:36:54;;;;;;;8.68;2.88;;;;;;;6.62;100.00;98540.06;10450085;28;20047;-80
2023/12/11 10:41:58;;;;;;;10.20;2.85;;;;;;;6.64;100.00;98529.25;10455970;28;20053;-79
2023/12/11 10:47:04;;;;;;;8.27;2.80;;;;;;;6.38;100.00;98535.19;10435125;28;20041;-79
2023/12/11 10:52:09;;;;;;;12.15;2.50;;;;;;;6.68;100.00;98535.13;10414632;28;20042;-79
2023/12/11 10:57:14;;;;;;;6.75;2.10;;;;;;;6.55;100.00;98543.44;10434744;28;20107;-79
2023/12/11 11:02:21;;;;;;;9.20;2.42;;;;;;;6.46;100.00;98538.97;10432775;28;20152;-79
2023/12/11 11:07:29;;;;;;;8.10;2.38;;;;;;;6.52;100.00;98559.72;10445352;28;20037;-79
2023/12/11 11:12:42;;;;;;;3.97;1.98;;;;;;;6.47;100.00;98557.47;10444760;28;20500;-77
2023/12/11 11:18:06;;;;;;;6.13;1.45;;;;;;;6.27;100.00;98572.66;10440219;28;20036;-78
2023/12/11 11:23:26;;;;;;;12.80;2.25;;;;;;;6.60;100.00;98576.69;10451331;28;20618;-79
2023/12/11 11:28:37;;;;;;;8.85;1.85;;;;;;;6.44;100.00;98583.59;10451440;28;20045;-77
2023/12/11 11:33:46;;;;;;;4.72;1.50;;;;;;;6.44;100.00;98591.59;10447679;28;20049;-78
2023/12/11 11:38:55;;;;;;;3.88;1.80;;;;;;;6.42;100.00;98593.56;10439295;28;20097;-77
2023/12/11 11:44:06;;;;;;;6.25;1.88;;;;;;;6.60;100.00;98602.53;10433014;28;20433;-77
2023/12/11 11:49:09;;;;;;;4.90;1.88;;;;;;;6.35;100.00;98582.63;10444415;28;20063;-79
2023/12/11 11:54:14;;;;;;;6.75;1.98;;;;;;;6.59;100.00;98601.69;10449528;28;20111;-78
2023/12/11 11:59:17;;;;;;;5.40;1.95;;;;;;;6.63;100.00;98615.59;10454850;28;20055;-81
2023/12/11 12:04:27;;;;;;;6.47;1.60;;;;;;;6.97;100.00;98636.50;10475897;28;20084;-81
2023/12/11 12:09:33;;;;;;;3.17;1.30;;;;;;;6.73;100.00;98637.78;10464556;28;20037;-82
2023/12/11 12:14:36;;;;;;;9.68;2.00;;;;;;;6.91;100.00;98664.63;10450365;28;20453;-79
2023/12/11 12:19:39;;;;;;;5.45;1.55;;;;;;;7.02;100.00;98669.81;10464464;28;20094;-79
2023/12/11 12:24:48;;;;;;;1.70;1.23;;;;;;;6.93;100.00;98673.31;10461506;28;20113;-79
2023/12/11 12:29:54;;;;;;;3.10;1.00;;;;;;;6.61;100.00;98681.59;10451321;28;20059;-80
2023/12/11 12:34:57;;;;;;;14.38;1.38;;;;;;;6.87;100.00;98681.03;10444971;28;20602;-79
2023/12/11 12:40:05;;;;;;;7.50;1.33;;;;;;;6.82;100.00;98674.28;10442827;28;20041;-79
2023/12/11 12:45:10;;;;;;;5.32;1.20;;;;;;;6.84;100.00;98671.47;10439165;28;20097;-78
2023/12/11 12:50:20;;;;;;;3.78;1.15;;;;;;;6.71;100.00;98717.13;10444243;28;20044;-78
2023/12/11 12:55:30;;;;;;;8.15;1.80;;;;;;;6.83;100.00;98737.34;10465500;28;20071;-80
2023/12/11 13:00:35;;;;;;;5.00;1.13;;;;;;;6.80;100.00;98755.44;10466675;28;20049;-80
2023/12/11 13:05:39;;;;;;;10.23;1.60;;;;;;;6.72;100.00;98768.66;10429848;28;20761;-81
2023/12/11 13:10:55;;;;;;;9.02;2.13;;;;;;;6.63;100.00;98779.16;10405973;28;20664;-80
2023/12/11 13:15:58;;;;;;;12.23;1.90;;;;;;;6.57;100.00;98787.72;10428173;28;20135;-78
2023/12/11 13:21:01;;;;;;;12.75;2.55;;;;;;;6.79;100.00;98804.47;10420347;28;20485;-79
2023/12/11 13:26:06;;;;;;;8.18;2.17;;;;;;;6.40;100.00;98796.41;10402076;28;20123;-79
2023/12/11 13:31:09;;;;;;;14.35;2.88;;;;;;;6.85;100.00;98810.09;10409786;28;20079;-80
2023/12/11 13:36:14;;;;;;;14.43;2.42;;;;;;;6.92;100.00;98820.28;10418402;28;20087;-79
2023/12/11 13:41:18;;;;;;;8.98;1.90;;;;;;;6.49;100.00;98822.25;10408986;28;21157;-80
2023/12/11 13:46:22;;;;;;;12.45;2.50;;;;;;;6.43;100.00;98837.97;10416095;28;20049;-79
2023/12/11 13:51:26;;;;;;;18.40;2.55;;;;;;;6.40;100.00;98845.25;10432393;28;20085;-79
2023/12/11 13:56:32;;;;;;;9.55;2.38;;;;;;;6.71;100.00;98842.53;10435001;28;20143;-79
2023/12/11 14:01:35;;;;;;;13.75;1.92;;;;;;;6.95;100.00;98855.53;10448629;28;20053;-79
2023/12/11 14:06:42;;;;;;;11.35;2.10;;;;;;;6.58;100.00;98855.28;10422925;28;20053;-79
2023/12/11 14:11:47;;;;;;;9.50;1.92;;;;;;;6.63;100.00;98893.91;10429932;28;20064;-79
2023/12/11 14:16:50;;;;;;;11.07;1.35;;;;;;;6.76;100.00;98912.34;10381961;28;20060;-80
2023/12/11 14:21:53;;;;;;;7.45;2.03;;;;;;;6.72;100.00;98905.59;10379989;28;20048;-81
2023/12/11 14:26:57;;;;;;;4.90;1.35;;;;;;;6.65;100.00;98933.81;10396594;28;20049;-81
2023/12/11 14:32:00;;;;;;;5.53;1.33;;;;;;;6.31;100.00;98941.25;10401240;28;20428;-79
2023/12/11 14:37:04;;;;;;;9.50;1.70;;;;;;;6.33;100.00;98957.94;10393846;28;21002;-81
2023/12/11 14:42:08;;;;;;;2.85;0.47;;;;;;;6.28;100.00;98971.69;10392380;28;20871;-82
2023/12/11 14:47:12;;;;;;;6.35;0.82;;;;;;;6.41;100.00;98979.44;10425976;28;20067;-79
2023/12/11 14:52:15;;;;;;;2.75;0.50;;;;;;;6.61;100.00;98981.25;10415964;28;20064;-79
2023/12/11 14:57:19;;;;;;;7.13;0.70;;;;;;;6.52;100.00;98999.88;10419256;28;20053;-80
2023/12/11 15:02:22;;;;;;;2.83;0.80;;;;;;;6.02;100.00;99029.84;10412236;28;20451;-79
2023/12/11 15:07:26;;;;;;;3.47;0.88;;;;;;;6.36;100.00;99011.00;10428293;28;20053;-80
2023/12/11 15:12:32;;;;;;;1.35;0.68;;;;;;;6.32;100.00;99042.44;10403592;28;20180;-79
2023/12/11 15:17:35;;;;;;;2.58;1.00;;;;;;;6.34;100.00;99064.50;10438439;28;20041;-81
2023/12/11 15:22:38;;;;;;;5.60;1.80;;;;;;;6.69;100.00;99070.47;10419024;28;20104;-78
2023/12/11 15:27:44;;;;;;;6.20;1.65;;;;;;;6.69;100.00;99083.78;10426787;28;20049;-80
2023/12/11 15:32:48;;;;;;;4.25;1.25;;;;;;;6.02;100.00;99095.66;10428581;28;20056;-79
2023/12/11 15:37:51;;;;;;;5.20;1.55;;;;;;;5.96;100.00;99105.00;10449024;28;20049;-79
2023/12/11 15:42:56;;;;;;;3.03;1.00;;;;;;;6.42;100.00;99116.31;10409821;28;20049;-80
2023/12/11 15:47:58;;;;;;;5.65;0.93;;;;;;;6.19;100.00;99108.44;10410310;28;20471;-80
2023/12/11 15:53:05;;;;;;;3.08;0.77;;;;;;;5.88;100.00;99121.63;10397068;28;20060;-79
2023/12/11 15:58:09;;;;;;;0.93;0.52;;;;;;;6.15;100.00;99131.84;10410310;28;20049;-81
2023/12/11 16:03:14;;;;;;;2.97;0.70;;;;;;;6.03;100.00;99148.00;10416592;28;20052;-79
2023/12/11 16:08:17;;;;;;;2.80;0.50;;;;;;;5.91;100.00;99126.69;10414944;28;20048;-79
2023/12/11 16:13:22;;;;;;;2.72;0.63;;;;;;;5.85;100.00;99129.88;10413572;28;21197;-78
2023/12/11 16:18:28;;;;;;;1.02;0.35;;;;;;;5.70;100.00;99158.63;10396732;28;20045;-79
2023/12/11 16:23:36;;;;;;;2.83;0.32;;;;;;;5.73;100.00;99158.38;10420643;28;20700;-77
2023/12/11 16:28:40;;;;;;;1.65;0.50;;;;;;;5.81;100.00;99180.88;10426582;28;20136;-79
2023/12/11 16:33:43;;;;;;;5.72;0.47;;;;;;;5.81;100.00;99181.72;10408164;28;20057;-79
2023/12/11 16:38:46;;;;;;;1.40;0.50;;;;;;;5.58;100.00;99188.88;10413480;28;20062;-78
2023/12/11 16:43:51;;;;;;;1.70;0.47;;;;;;;5.70;99.77;99200.38;10452810;28;20071;-79
2023/12/11 16:48:55;;;;;;;3.95;0.88;;;;;;;5.86;98.69;99208.00;10434729;28;20065;-80
2023/12/11 16:53:58;;;;;;;1.33;0.40;;;;;;;5.95;97.14;99217.91;10407979;28;20052;-79
2023/12/11 16:59:03;;;;;;;1.55;0.77;;;;;;;6.33;97.05;99232.63;10408548;28;20059;-82
2023/12/11 17:04:06;;;;;;;5.50;0.93;;;;;;;5.95;94.91;99250.78;10429409;28;20076;-79
2023/12/11 17:09:10;;;;;;;2.28;0.68;;;;;;;6.31;93.37;99251.44;10435694;28;20119;-79
2023/12/11 17:14:14;;;;;;;4.30;0.77;;;;;;;6.15;93.85;99264.31;10439402;28;20045;-79
2023/12/11 17:19:17;;;;;;;6.82;0.75;;;;;;;6.27;92.07;99267.81;10431009;28;20060;-79
2023/12/11 17:24:20;;;;;;;1.25;0.52;;;;;;;6.45;91.38;99273.47;10427815;28;20045;-78
2023/12/11 17:29:25;;;;;;;5.63;0.70;;;;;;;6.31;91.45;99282.59;10422291;28;20049;-78
2023/12/11 17:34:29;;;;;;;6.40;1.55;;;;;;;6.21;91.68;99276.31;10426521;28;20116;-79
2023/12/11 17:39:32;;;;;;;3.97;1.08;;;;;;;6.52;91.67;99285.31;10426885;28;20053;-79
2023/12/11 17:44:36;;;;;;;3.03;0.93;;;;;;;5.96;92.68;99299.59;10432795;28;20148;-79
2023/12/11 17:49:40;;;;;;;6.68;0.90;;;;;;;6.07;93.01;99309.41;10430010;28;20101;-79
2023/12/11 17:54:48;;;;;;;3.83;0.93;;;;;;;6.39;91.86;99318.34;10418322;28;20112;-79
2023/12/11 17:59:53;;;;;;;4.47;1.30;;;;;;;6.15;92.43;99309.66;10390497;28;20053;-78
2023/12/11 18:04:56;;;;;;;7.68;1.40;;;;;;;6.39;91.77;99323.69;10389915;28;20060;-79
2023/12/11 18:09:59;;;;;;;4.82;1.08;;;;;;;6.04;93.90;99325.66;10398425;28;20504;-80
2023/12/11 18:15:04;;;;;;;6.28;1.48;;;;;;;6.36;92.20;99331.94;10403780;28;20140;-81
2023/12/11 18:20:08;;;;;;;10.40;1.85;;;;;;;6.33;92.93;99337.50;10399416;28;20702;-81
2023/12/11 18:25:12;;;;;;;4.30;1.50;;;;;;;6.78;90.54;99348.09;10403580;28;20063;-81
2023/12/11 18:30:17;;;;;;;6.38;2.08;;;;;;;6.36;93.01;99357.75;10411356;28;20048;-81
2023/12/11 18:35:19;;;;;;;10.60;1.80;;;;;;;6.48;91.69;99356.78;10419592;28;20058;-81
2023/12/11 18:40:22;;;;;;;7.97;1.70;;;;;;;6.23;93.44;99367.72;10444338;28;20060;-80
2023/12/11 18:45:29;;;;;;;6.88;1.85;;;;;;;6.83;90.14;99377.09;10418040;28;20048;-81
2023/12/11 18:50:32;;;;;;;9.00;2.55;;;;;;;6.88;89.94;99374.06;10404984;28;20049;-79
2023/12/11 18:55:35;;;;;;;8.32;2.10;;;;;;;6.72;90.12;99371.75;10412513;28;20049;-80
2023/12/11 19:00:39;;;;;;;6.20;1.85;;;;;;;6.43;91.14;99372.28;10407964;28;20049;-80
2023/12/11 19:05:42;;;;;;;9.98;2.85;;;;;;;6.27;93.19;99383.31;10411861;28;21771;-79
2023/12/11 19:10:45;;;;;;;8.52;2.65;;;;;;;6.34;93.64;99395.22;10423924;28;20056;-79
2023/12/11 19:15:50;;;;;;;11.95;3.13;;;;;;;6.53;92.35;99397.28;10428185;28;20044;-79
2023/12/11 19:20:53;;;;;;;8.05;3.20;;;;;;;6.60;91.32;99397.63;10411786;28;20050;-80
2023/12/11 19:25:56;;;;;;;18.27;3.25;;;;;;;6.48;91.74;99407.47;10398703;28;20061;-80
2023/12/11 19:31:02;;;;;;;10.90;2.60;;;;;;;6.51;91.08;99403.69;10425111;28;20811;-80
2023/12/11 19:36:06;;;;;;;13.18;3.22;;;;;;;6.31;92.01;99416.81;10432108;28;20063;-81
2023/12/11 19:41:09;;;;;;;14.57;3.53;;;;;;;6.31;91.37;99427.47;10415984;28;20052;-81
2023/12/11 19:46:14;;;;;;;12.93;3.53;;;;;;;6.53;90.77;99436.44;10431037;28;21198;-81
2023/12/11 19:51:17;;;;;;;11.75;3.05;;;;;;;6.14;92.68;99442.13;10423448;28;21293;-81
2023/12/11 19:56:20;;;;;;;15.70;4.03;;;;;;;6.35;90.41;99436.06;10411744;28;20059;-80
2023/12/11 20:01:28;;;;;;;9.73;3.20;;;;;;;6.25;91.64;99440.41;10426850;28;20064;-81
2023/12/11 20:06:31;;;;;;;11.98;4.15;;;;;;;6.11;91.58;99450.34;10418500;28;20053;-81
2023/12/11 20:11:35;;;;;;;6.38;2.33;;;;;;;5.98;91.90;99446.94;10431661;28;20044;-81
2023/12/11 20:16:40;;;;;;;10.05;3.42;;;;;;;5.99;92.26;99439.78;10429257;28;20053;-80
2023/12/11 20:21:43;;;;;;;11.45;3.00;;;;;;;5.92;90.64;99448.25;10429688;28;20080;-79
2023/12/11 20:26:46;;;;;;;17.85;3.20;;;;;;;5.86;92.92;99451.38;10425378;28;20137;-81
2023/12/11 20:31:53;;;;;;;8.32;2.67;;;;;;;6.43;88.88;99459.47;10424515;28;20041;-81
2023/12/11 20:36:55;;;;;;;10.90;3.20;;;;;;;6.06;90.90;99460.53;10420462;28;20488;-81
2023/12/11 20:41:59;;;;;;;9.63;3.13;;;;;;;5.80;91.58;99475.00;10441537;28;20140;-81
2023/12/11 20:47:03;;;;;;;11.25;3.38;;;;;;;6.02;90.50;99479.53;10435879;28;20160;-82
2023/12/11 20:52:06;;;;;;;8.77;3.20;;;;;;;5.62;93.59;99486.06;10443865;28;20048;-82
2023/12/11 20:57:10;;;;;;;7.30;2.88;;;;;;;5.72;90.86;99484.41;10417253;28;21234;-79
2023/12/11 21:02:14;;;;;;;11.18;2.92;;;;;;;5.81;89.94;99488.19;10419011;28;20052;-81
2023/12/11 21:07:17;;;;;;;8.43;3.28;;;;;;;5.51;92.23;99496.66;10403383;28;20049;-80
2023/12/11 21:12:20;;;;;;;7.55;2.97;;;;;;;5.45;91.87;99508.59;10422700;28;20083;-79
2023/12/11 21:17:25;;;;;;;12.85;3.05;;;;;;;5.63;90.82;99508.22;10417668;28;20045;-79
2023/12/11 21:22:28;;;;;;;9.48;2.65;;;;;;;5.78;89.48;99519.53;10415151;28;20059;-78
2023/12/11 21:27:31;;;;;;;12.30;3.10;;;;;;;5.52;91.22;99521.50;10415475;28;20139;-79
2023/12/11 21:32:38;;;;;;;13.38;3.25;;;;;;;5.49;91.39;99526.09;10412279;28;20064;-80
2023/12/11 21:37:41;;;;;;;8.38;3.03;;;;;;;5.43;91.17;99510.56;10422162;28;20064;-79
2023/12/11 21:42:44;;;;;;;8.48;3.40;;;;;;;5.52;91.43;99500.19;10406342;28;20078;-80
2023/12/11 21:47:48;;;;;;;9.48;3.75;;;;;;;5.51;90.63;99512.63;10420331;28;20053;-80
2023/12/11 21:52:52;;;;;;;9.70;3.30;;;;;;;5.26;92.96;99529.56;10427118;28;20098;-80
2023/12/11 21:57:54;;;;;;;10.43;3.40;;;;;;;5.25;92.11;99519.88;10424702;28;20080;-81
2023/12/11 22:02:59;;;;;;;6.43;3.35;;;;;;;5.06;94.61;99528.34;10413554;28;20055;-82
2023/12/11 22:08:03;;;;;;;10.88;3.70;;;;;;;4.96;94.83;99540.56;10421467;28;20056;-81
2023/12/11 22:13:06;;;;;;;6.28;3.58;;;;;;;5.12;94.78;99551.84;10433202;28;21050;-82
2023/12/11 22:18:10;;;;;;;14.65;4.18;;;;;;;5.10;95.36;99553.81;10444270;28;20048;-81
2023/12/11 22:23:13;;;;;;;8.35;3.58;;;;;;;5.25;93.42;99563.34;10428096;28;20456;-82
2023/12/11 22:28:16;;;;;;;15.50;4.07;;;;;;;5.08;95.54;99571.69;10434484;28;20045;-81
2023/12/11 22:33:21;;;;;;;14.30;4.60;;;;;;;5.08;96.70;99560.19;10424620;28;20323;-81
2023/12/11 22:38:24;;;;;;;10.68;3.70;;;;;;;4.88;98.75;99573.03;10416395;28;20127;-81
2023/12/11 22:43:27;;;;;;;11.65;5.13;;;;;;;4.90;98.92;99576.44;10411821;28;20053;-81
2023/12/11 22:48:31;;;;;;;19.58;6.00;;;;;;;4.97;99.37;99588.38;10403256;28;20065;-81
2023/12/11 22:53:35;;;;;;;13.35;5.35;;;;;;;4.93;100.00;99602.00;10389924;28;20053;-82
2023/12/11 22:58:38;;;;;;;20.75;7.30;;;;;;;4.95;100.00;99608.91;10421104;28;20049;-82
2023/12/11 23:03:42;;;;;;;17.58;6.55;;;;;;;5.19;99.25;99613.53;10409085;28;20103;-81
2023/12/11 23:08:45;;;;;;;17.55;6.97;;;;;;;5.15;100.00;99607.53;10384740;28;20049;-81
2023/12/11 23:13:48;;;;;;;21.52;7.50;;;;;;;4.78;100.00;99610.09;10386172;28;20056;-82
2023/12/11 23:18:58;;;;;;;18.65;6.85;;;;;;;4.90;100.00;99621.69;10395067;28;20164;-81
2023/12/11 23:24:02;;;;;;;18.25;7.25;;;;;;;5.14;100.00;99628.97;10383599;28;20196;-81
2023/12/11 23:29:05;;;;;;;18.02;7.35;;;;;;;5.38;98.80;99624.56;10386972;28;20056;-81
2023/12/11 23:34:09;;;;;;;15.93;6.22;;;;;;;5.08;100.00;99626.75;10412383;28;20042;-81